Time;durP1;ratioP1;P1;durP2;ratioP2;P2;SDS_P1;SDS_P2;PMS_P1;PMS_P2;Temp;Humidity;BMP_temperature;BMP_pressure;BME280_temperature;BME280_humidity;BME280_pressure;Samples;Min_cycle;Max_cycle;Signal;HPM_P1;HPM_P2
2022/09/25 00:00:10;;;;;;;;;3.00;3.00;;;;;16.12;60.56;101158.72;5084001;28;47213;-85
2022/09/25 00:02:35;;;;;;;;;4.67;4.00;;;;;16.10;59.93;101156.09;5085605;28;45366;-84
2022/09/25 00:05:01;;;;;;;;;3.00;3.00;;;;;16.09;60.25;101157.00;5070899;28;45397;-84
2022/09/25 00:07:27;;;;;;;;;2.67;2.67;;;;;16.03;60.09;101150.03;5085401;27;45400;-84
2022/09/25 00:09:52;;;;;;;;;4.00;4.00;;;;;16.00;60.34;101155.41;5063853;28;48088;-84
2022/09/25 00:12:17;;;;;;;;;3.00;3.00;;;;;15.98;60.41;101161.66;5078149;28;45464;-84
2022/09/25 00:14:43;;;;;;;;;4.00;4.00;;;;;15.93;60.33;101152.88;5071274;28;45480;-84
2022/09/25 00:17:08;;;;;;;;;4.00;4.00;;;;;15.84;60.41;101152.16;5080494;28;45811;-83
2022/09/25 00:20:06;;;;;;;;;5.00;4.00;;;;;15.87;60.28;101160.06;5063559;28;47795;-84
2022/09/25 00:22:26;;;;;;;;;5.75;2.75;;;;;15.80;60.42;101160.25;5078521;27;45402;-84
2022/09/25 00:24:53;;;;;;;;;2.50;2.50;;;;;15.79;60.69;101174.41;5074179;28;45426;-84
2022/09/25 00:27:18;;;;;;;;;5.00;3.75;;;;;15.69;60.64;101160.44;5080333;27;45436;-84
2022/09/25 00:29:46;;;;;;;;;2.50;2.50;;;;;15.71;60.70;101169.22;5063179;28;46822;-84
2022/09/25 00:32:12;;;;;;;;;4.33;4.00;;;;;15.68;60.71;101173.69;5093755;27;45284;-85
2022/09/25 00:34:38;;;;;;;;;3.33;3.00;;;;;15.60;60.83;101171.16;5074356;28;45348;-84
2022/09/25 00:37:04;;;;;;;;;5.25;5.00;;;;;15.59;60.68;101172.09;5099274;27;45306;-84
2022/09/25 00:39:30;;;;;;;;;4.00;4.00;;;;;15.53;61.06;101162.44;5089256;27;47322;-85
2022/09/25 00:41:56;;;;;;;;;6.00;6.00;;;;;15.58;61.01;101165.00;5069073;28;45393;-84
2022/09/25 00:44:52;;;;;;;;;3.00;2.25;;;;;15.55;60.86;101168.59;5088607;27;45400;-84
2022/09/25 00:47:32;;;;;;;;;6.00;4.75;;;;;15.47;61.46;101162.53;5073035;28;45489;-84
2022/09/25 00:50:01;;;;;;;;;6.25;6.00;;;;;15.48;61.00;101158.13;5065078;28;46869;-84
2022/09/25 00:52:27;;;;;;;;;4.50;4.50;;;;;15.46;61.18;101155.50;5074923;28;45889;-85
2022/09/25 00:54:59;;;;;;;;;6.00;4.50;;;;;15.54;61.41;101160.66;5079773;27;45292;-85
2022/09/25 00:57:29;;;;;;;;;7.00;5.00;;;;;15.55;61.38;101154.44;5074948;28;45365;-84
2022/09/25 01:00:01;;;;;;;;;6.25;6.25;;;;;15.56;61.38;101161.53;5071023;27;47062;-84
2022/09/25 01:02:33;;;;;;;;;5.00;5.00;;;;;15.55;61.27;101163.28;5087539;27;45333;-84
2022/09/25 01:05:05;;;;;;;;;4.75;4.00;;;;;15.52;61.63;101154.50;5069243;28;45252;-84
2022/09/25 01:07:37;;;;;;;;;5.50;5.00;;;;;15.55;61.66;101163.28;5082258;28;45226;-85
2022/09/25 01:10:06;;;;;;;;;5.25;4.25;;;;;15.52;61.83;101147.41;5072504;28;45350;-83
2022/09/25 01:12:39;;;;;;;;;5.25;4.50;;;;;15.54;61.56;101161.53;5083013;28;45979;-84
2022/09/25 01:15:17;;;;;;;;;5.00;4.00;;;;;15.49;61.58;101162.53;5090386;27;45268;-83
2022/09/25 01:18:01;;;;;;;;;5.75;5.75;;;;;15.55;61.83;101176.53;5068862;28;45439;-84
2022/09/25 01:20:55;;;;;;;;;5.75;5.75;;;;;15.54;61.66;101165.97;5083004;27;46127;-85
2022/09/25 01:23:23;;;;;;;;;8.25;4.75;;;;;15.51;61.60;101160.72;5074291;28;45285;-84
2022/09/25 01:26:13;;;;;;;;;4.33;4.00;;;;;15.50;61.71;101166.91;5084189;27;45222;-84
2022/09/25 01:28:57;;;;;;;;;6.00;5.00;;;;;15.49;61.77;101167.84;5067155;28;45651;-84
2022/09/25 01:31:45;;;;;;;;;7.25;5.00;;;;;15.44;62.05;101158.16;5062651;28;47513;-83
2022/09/25 01:34:21;;;;;;;;;6.00;6.00;;;;;15.41;61.98;101149.38;5083747;27;46066;-83
2022/09/25 01:36:56;;;;;;;;;6.00;5.75;;;;;15.40;61.90;101152.94;5075946;28;45437;-83
2022/09/25 01:39:29;;;;;;;;;5.75;5.50;;;;;15.28;62.07;101140.75;5062361;28;45481;-84
2022/09/25 01:42:08;;;;;;;;;6.00;5.50;;;;;15.27;62.24;101152.28;5077515;27;47917;-84
2022/09/25 01:44:42;;;;;;;;;6.50;6.00;;;;;15.26;62.42;101155.81;5063653;28;45397;-84
2022/09/25 01:47:13;;;;;;;;;8.00;8.00;;;;;15.18;62.34;101150.66;5062367;28;45179;-84
2022/09/25 01:49:46;;;;;;;;;7.00;7.00;;;;;15.24;62.71;101154.13;5061632;28;45448;-84
2022/09/25 01:52:16;;;;;;;;;6.00;6.00;;;;;15.21;62.71;101147.09;5062136;28;47905;-84
2022/09/25 01:54:50;;;;;;;;;6.75;6.75;;;;;15.21;62.97;101147.94;5063432;28;45227;-84
2022/09/25 01:57:29;;;;;;;;;7.75;6.75;;;;;15.25;63.03;101148.75;5061886;28;45319;-84
2022/09/25 02:00:04;;;;;;;;;7.00;6.50;;;;;15.23;62.85;101153.22;5075918;28;45408;-85
2022/09/25 02:02:35;;;;;;;;;8.50;6.00;;;;;15.28;62.75;101166.41;5072114;28;47111;-84
2022/09/25 02:05:16;;;;;;;;;4.25;4.00;;;;;15.30;62.69;101167.28;5069135;28;45250;-84
2022/09/25 02:07:50;;;;;;;;;9.25;6.25;;;;;15.30;62.72;101165.47;5081557;28;45334;-83
2022/09/25 02:10:28;;;;;;;;;6.50;6.50;;;;;15.29;63.09;101160.19;5083565;27;45337;-83
2022/09/25 02:12:57;;;;;;;;;4.25;2.25;;;;;15.34;62.88;101167.19;5069495;27;45417;-83
2022/09/25 02:15:34;;;;;;;;;7.00;7.00;;;;;15.31;62.71;101164.56;5070416;27;45255;-84
2022/09/25 02:20:57;;;;;;;;;6.25;6.25;;;;;15.32;62.65;101166.34;5069537;28;45401;-84
2022/09/25 02:24:03;;;;;;;;;10.00;8.75;;;;;15.32;62.82;101163.69;5077404;28;46502;-84
2022/09/25 02:26:31;;;;;;;;;6.00;6.00;;;;;15.32;62.99;101162.81;5058138;28;45608;-83
2022/09/25 02:28:57;;;;;;;;;5.25;4.50;;;;;15.29;62.91;101168.16;5064654;27;45247;-84
2022/09/25 02:31:39;;;;;;;;;7.25;7.25;;;;;15.32;62.78;101171.66;5074928;28;45223;-84
2022/09/25 02:34:05;;;;;;;;;6.75;5.75;;;;;15.26;63.27;101166.41;5069084;28;47397;-84
2022/09/25 02:36:32;;;;;;;;;5.75;5.25;;;;;15.29;63.21;101169.06;5082140;27;45288;-84
2022/09/25 02:38:59;;;;;;;;;7.75;7.00;;;;;15.33;63.13;101175.16;5061802;28;45411;-83
2022/09/25 02:41:56;;;;;;;;;6.50;6.00;;;;;15.32;62.88;101168.13;5075995;28;45473;-83
2022/09/25 02:44:33;;;;;;;;;6.50;5.50;;;;;15.29;62.99;101169.06;5075413;28;46830;-84
2022/09/25 02:47:05;;;;;;;;;8.75;7.50;;;;;15.26;63.10;101174.38;5074521;28;45326;-84
2022/09/25 02:49:53;;;;;;;;;8.00;7.00;;;;;15.27;63.37;101176.16;5062858;28;45322;-84
2022/09/25 02:52:32;;;;;;;;;8.75;8.50;;;;;15.24;63.42;101172.69;5073961;28;45506;-84
2022/09/25 02:55:11;;;;;;;;;6.00;6.00;;;;;15.26;63.37;101174.38;5069196;28;45567;-84
2022/09/25 02:57:52;;;;;;;;;9.25;8.75;;;;;15.29;63.40;101177.00;5069050;27;45492;-83
2022/09/25 03:00:21;;;;;;;;;8.75;8.00;;;;;15.32;63.50;101184.91;5083060;28;45483;-84
2022/09/25 03:02:49;;;;;;;;;7.00;7.00;;;;;15.31;63.29;101182.28;5069112;28;45370;-85
2022/09/25 03:05:15;;;;;;;;;5.00;5.00;;;;;15.27;63.65;101184.09;5074099;28;48271;-84
2022/09/25 03:10:28;;;;;;;;;10.50;9.25;;;;;15.22;63.71;101183.31;5086560;28;45327;-84
2022/09/25 03:12:53;;;;;;;;;8.25;8.00;;;;;15.18;63.73;101171.88;5083077;27;45572;-84
2022/09/25 03:15:19;;;;;;;;;12.25;12.25;;;;;15.21;63.56;101176.25;5065794;28;45533;-83
2022/09/25 03:17:47;;;;;;;;;8.75;8.75;;;;;15.19;63.76;101175.41;5077838;28;45542;-84
2022/09/25 03:20:12;;;;;;;;;9.75;9.50;;;;;15.21;63.30;101185.09;5073028;28;45497;-83
2022/09/25 03:22:38;;;;;;;;;8.75;8.75;;;;;15.15;63.79;101182.50;5079119;28;45412;-83
2022/09/25 03:25:04;;;;;;;;;11.75;10.50;;;;;15.15;63.79;101179.84;5075453;28;46931;-83
2022/09/25 03:27:30;;;;;;;;;9.75;9.00;;;;;15.16;63.86;101188.72;5084652;28;45670;-83
2022/09/25 03:29:55;;;;;;;;;10.75;9.00;;;;;15.10;64.15;101184.38;5081507;28;45320;-84
2022/09/25 03:32:21;;;;;;;;;14.50;13.50;;;;;15.10;64.08;101187.03;5085191;28;45266;-84
2022/09/25 03:34:46;;;;;;;;;11.50;10.50;;;;;15.12;63.86;101195.81;5084776;28;47230;-84
2022/09/25 03:37:12;;;;;;;;;13.00;13.00;;;;;15.12;64.14;101200.25;5072452;27;44732;-82
2022/09/25 03:39:37;;;;;;;;;13.00;11.00;;;;;15.10;64.19;101188.78;5086164;28;45176;-83
2022/09/25 03:42:03;;;;;;;;;10.25;9.75;;;;;15.10;64.01;101200.28;5071819;27;45562;-84
2022/09/25 03:44:29;;;;;;;;;12.00;12.00;;;;;15.11;64.09;101201.16;5071843;28;47052;-83
2022/09/25 03:46:54;;;;;;;;;13.00;10.50;;;;;15.10;63.78;101197.66;5084747;28;45179;-84
2022/09/25 03:49:19;;;;;;;;;12.75;12.00;;;;;15.06;64.09;101201.22;5086299;27;45419;-83
2022/09/25 03:51:45;;;;;;;;;10.50;9.00;;;;;15.06;63.88;101200.34;5081629;27;45618;-83
2022/09/25 03:54:10;;;;;;;;;10.50;8.75;;;;;15.07;63.77;101196.78;5072026;28;48056;-83
2022/09/25 03:56:35;;;;;;;;;10.50;10.50;;;;;15.06;63.99;101205.66;5077491;28;45286;-84
2022/09/25 03:59:01;;;;;;;;;11.25;10.75;;;;;15.04;64.04;101202.16;5074086;28;45325;-84
2022/09/25 04:01:27;;;;;;;;;10.25;8.75;;;;;14.96;64.13;101187.22;5070324;27;45485;-84
2022/09/25 04:03:53;;;;;;;;;9.25;9.00;;;;;14.98;63.98;101189.84;5067653;28;45406;-84
2022/09/25 04:06:23;;;;;;;;;8.75;8.75;;;;;15.06;64.31;101192.41;5082453;28;46054;-82
2022/09/25 04:08:49;;;;;;;;;9.25;9.00;;;;;15.00;64.25;101188.94;5081334;28;45236;-83
2022/09/25 04:11:18;;;;;;;;;11.00;9.75;;;;;15.01;64.16;101203.06;5076514;28;45583;-84
2022/09/25 04:13:44;;;;;;;;;8.75;7.75;;;;;15.04;63.99;101208.31;5077826;28;46296;-84
2022/09/25 04:16:11;;;;;;;;;11.75;10.25;;;;;15.02;64.20;101203.94;5070629;28;45276;-84
2022/09/25 04:18:37;;;;;;;;;11.00;10.00;;;;;15.03;64.02;101195.97;5070904;27;45384;-84
2022/09/25 04:21:04;;;;;;;;;11.25;9.00;;;;;15.03;64.38;101195.97;5078442;28;45586;-84
2022/09/25 04:23:31;;;;;;;;;12.25;11.00;;;;;15.03;64.54;101197.75;5068347;28;47353;-84
2022/09/25 04:25:57;;;;;;;;;13.25;11.75;;;;;14.99;64.31;101188.94;5076519;28;45332;-83
2022/09/25 04:28:22;;;;;;;;;17.50;15.25;;;;;15.04;64.44;101210.97;5065071;28;45344;-83
2022/09/25 04:30:49;;;;;;;;;15.25;13.25;;;;;15.05;64.16;101202.13;5080594;28;45460;-84
2022/09/25 04:36:04;;;;;;;;;15.25;15.25;;;;;15.08;64.00;101209.16;5075397;28;45450;-84
2022/09/25 04:38:31;;;;;;;;;19.00;17.50;;;;;15.08;64.54;101209.16;5080785;28;45531;-84
2022/09/25 04:40:56;;;;;;;;;19.50;16.50;;;;;15.08;64.21;101218.00;5075260;28;45446;-83
2022/09/25 04:43:22;;;;;;;;;21.25;16.25;;;;;15.09;64.41;101213.56;5086890;27;47123;-83
2022/09/25 04:45:48;;;;;;;;;16.50;15.25;;;;;15.11;64.10;101222.38;5090524;27;45423;-82
2022/09/25 04:48:13;;;;;;;;;18.75;15.50;;;;;15.10;64.28;101217.94;5076933;28;45373;-83
2022/09/25 04:50:38;;;;;;;;;14.75;12.00;;;;;15.12;64.16;101222.34;5075519;28;45408;-83
2022/09/25 04:53:04;;;;;;;;;15.75;14.00;;;;;15.12;64.35;101217.03;5084552;27;45546;-83
2022/09/25 04:55:29;;;;;;;;;18.00;15.00;;;;;15.14;63.81;101223.19;5084939;27;45413;-83
2022/09/25 04:57:57;;;;;;;;;16.50;16.25;;;;;15.11;64.10;101227.69;5083277;28;45259;-82
2022/09/25 05:00:25;;;;;;;;;20.50;19.00;;;;;15.02;64.02;101225.16;5083112;28;45244;-81
2022/09/25 05:02:51;;;;;;;;;21.25;18.25;;;;;15.07;64.13;101234.78;5069552;28;48151;-83
2022/09/25 05:05:18;;;;;;;;;16.75;16.50;;;;;15.06;63.92;101243.66;5091377;27;46155;-83
2022/09/25 05:07:51;;;;;;;;;19.75;16.75;;;;;15.05;63.75;101244.56;5079487;28;45288;-83
2022/09/25 05:10:16;;;;;;;;;17.00;17.00;;;;;15.04;63.56;101242.78;5089643;27;45257;-83
2022/09/25 05:12:42;;;;;;;;;13.75;12.50;;;;;15.00;63.43;101241.09;5066619;28;47227;-83
2022/09/25 05:15:08;;;;;;;;;11.75;10.50;;;;;14.96;63.61;101234.94;5072556;28;46134;-83
2022/09/25 05:17:33;;;;;;;;;17.75;15.50;;;;;14.92;63.45;101241.19;5068412;28;45593;-82
2022/09/25 05:19:59;;;;;;;;;14.00;13.75;;;;;14.87;63.56;101236.88;5084239;27;45497;-83
2022/09/25 05:22:24;;;;;;;;;11.75;11.75;;;;;14.80;63.45;101238.69;5082662;28;47851;-82
2022/09/25 05:24:51;;;;;;;;;18.00;17.25;;;;;14.73;63.53;101229.97;5081609;27;45218;-82
2022/09/25 05:27:17;;;;;;;;;16.25;16.25;;;;;14.71;63.63;101239.69;5068807;28;45209;-83
2022/09/25 05:29:42;;;;;;;;;17.75;17.25;;;;;14.69;63.46;101238.84;5083364;28;45493;-82
2022/09/25 05:32:10;;;;;;;;;16.25;11.50;;;;;14.68;64.06;101239.75;5079706;27;46701;-83
2022/09/25 05:34:36;;;;;;;;;12.00;11.25;;;;;14.64;63.81;101242.44;5073325;28;45408;-83
2022/09/25 05:37:02;;;;;;;;;13.50;11.00;;;;;14.52;63.95;101236.41;5077824;27;45349;-83
2022/09/25 05:39:27;;;;;;;;;14.25;11.75;;;;;14.48;64.06;101234.66;5062849;28;46246;-82
2022/09/25 05:41:53;;;;;;;;;11.00;10.50;;;;;14.51;63.93;101246.97;5062958;28;45471;-81
2022/09/25 05:44:20;;;;;;;;;12.00;11.75;;;;;14.38;64.04;101251.56;5074255;28;45424;-82
2022/09/25 05:46:45;;;;;;;;;13.50;11.75;;;;;14.39;63.96;101260.38;5067518;28;45302;-83
2022/09/25 05:49:11;;;;;;;;;8.00;7.50;;;;;14.38;64.50;101258.63;5069914;28;45711;-81
2022/09/25 05:51:36;;;;;;;;;11.25;10.50;;;;;14.37;64.38;101267.47;5073709;28;47212;-82
2022/09/25 05:54:01;;;;;;;;;9.25;9.00;;;;;14.33;64.36;101266.63;5071720;28;45239;-82
2022/09/25 05:56:27;;;;;;;;;12.75;11.50;;;;;14.36;64.37;101273.66;5090874;27;45306;-83
2022/09/25 05:58:54;;;;;;;;;8.75;7.50;;;;;14.31;63.84;101271.94;5069760;28;45368;-83
2022/09/25 06:01:19;;;;;;;;;11.25;9.75;;;;;14.25;64.27;101279.94;5075168;28;47949;-82
2022/09/25 06:03:45;;;;;;;;;10.25;8.50;;;;;14.17;63.92;101273.84;5068594;28;45510;-83
2022/09/25 06:06:10;;;;;;;;;7.75;6.00;;;;;14.17;64.31;101280.94;5074645;27;45401;-84
2022/09/25 06:08:36;;;;;;;;;8.75;8.75;;;;;14.09;64.59;101270.41;5075737;27;45563;-84
2022/09/25 06:11:02;;;;;;;;;11.75;11.00;;;;;14.06;64.25;101276.59;5073044;28;45339;-85
2022/09/25 06:13:30;;;;;;;;;6.75;6.50;;;;;14.03;64.20;101273.09;5068957;28;45618;-85
2022/09/25 06:15:56;;;;;;;;;8.75;7.00;;;;;14.07;64.62;101286.28;5092066;27;45254;-83
2022/09/25 06:18:23;;;;;;;;;9.25;9.25;;;;;14.05;64.36;101288.06;5068782;28;45312;-83
2022/09/25 06:20:50;;;;;;;;;9.50;8.00;;;;;14.01;64.52;101286.34;5075827;27;45375;-84
2022/09/25 06:23:17;;;;;;;;;9.25;8.00;;;;;14.01;64.27;101294.31;5063804;28;45363;-82
2022/09/25 06:25:43;;;;;;;;;10.25;10.00;;;;;13.99;64.45;101289.91;5087301;27;45492;-83
2022/09/25 06:28:10;;;;;;;;;9.25;7.75;;;;;13.98;64.23;101291.69;5069219;28;45430;-83
2022/09/25 06:30:37;;;;;;;;;8.50;8.50;;;;;13.96;64.58;101292.59;5059891;28;45892;-83
2022/09/25 06:33:09;;;;;;;;;8.00;8.00;;;;;13.96;64.52;101295.25;5070030;28;45764;-83
2022/09/25 06:35:55;;;;;;;;;7.00;6.25;;;;;13.95;64.27;101294.34;5075481;28;45378;-82
2022/09/25 06:38:20;;;;;;;;;7.25;7.25;;;;;13.95;64.29;101296.13;5074600;28;45602;-81
2022/09/25 06:40:46;;;;;;;;;6.50;6.00;;;;;13.90;64.13;101294.41;5068193;28;45932;-83
2022/09/25 06:43:14;;;;;;;;;6.00;5.00;;;;;13.89;64.18;101289.09;5079776;28;45371;-82
2022/09/25 06:45:41;;;;;;;;;7.25;7.25;;;;;13.88;64.09;101292.66;5072422;27;45560;-81
2022/09/25 06:48:16;;;;;;;;;5.25;5.00;;;;;13.87;63.98;101291.78;5074456;28;45515;-82
2022/09/25 06:50:47;;;;;;;;;10.25;6.75;;;;;13.88;63.79;101282.94;5072918;28;45352;-82
2022/09/25 06:53:14;;;;;;;;;9.75;8.50;;;;;13.85;63.71;101290.03;5081079;28;45295;-82
2022/09/25 06:55:40;;;;;;;;;6.00;5.00;;;;;13.85;64.13;101287.41;5081494;28;45408;-82
2022/09/25 06:58:07;;;;;;;;;6.00;6.00;;;;;13.90;63.93;101296.19;5080462;28;45535;-82
2022/09/25 07:00:33;;;;;;;;;5.50;3.75;;;;;13.88;64.01;101285.59;5080997;28;47020;-82
2022/09/25 07:05:46;;;;;;;;;6.50;6.00;;;;;13.89;63.65;101286.47;5082057;28;45479;-82
2022/09/25 07:08:12;;;;;;;;;5.00;4.00;;;;;13.94;63.93;101305.81;5068048;27;45184;-82
2022/09/25 07:10:38;;;;;;;;;5.00;5.00;;;;;13.88;63.91;101301.47;5095062;27;47106;-82
2022/09/25 07:13:04;;;;;;;;;8.25;6.25;;;;;13.92;63.66;101306.72;5079582;28;45647;-82
2022/09/25 07:15:30;;;;;;;;;4.00;4.00;;;;;13.86;63.59;101297.06;5081219;28;45264;-82
2022/09/25 07:17:55;;;;;;;;;5.00;5.00;;;;;13.88;63.57;101301.47;5073676;28;45468;-82
2022/09/25 07:20:21;;;;;;;;;7.50;4.75;;;;;13.91;63.63;101303.22;5074245;28;47151;-82
2022/09/25 07:22:47;;;;;;;;;5.00;4.00;;;;;13.90;63.68;101293.53;5066410;28;45429;-82
2022/09/25 07:25:13;;;;;;;;;4.50;4.50;;;;;13.94;63.63;101300.53;5091127;27;45405;-82
2022/09/25 07:27:38;;;;;;;;;6.50;5.00;;;;;13.95;63.35;101296.97;5060630;28;45425;-82
2022/09/25 07:30:05;;;;;;;;;4.25;3.25;;;;;13.96;63.83;101301.41;5075332;28;45794;-82
2022/09/25 07:32:31;;;;;;;;;6.00;5.25;;;;;14.01;63.59;101304.91;5067933;28;45470;-82
2022/09/25 07:34:57;;;;;;;;;6.00;4.50;;;;;14.08;63.42;101318.94;5082069;27;45309;-82
2022/09/25 07:37:23;;;;;;;;;4.50;4.50;;;;;14.08;63.35;101311.88;5074328;27;45426;-82
2022/09/25 07:39:48;;;;;;;;;3.75;3.75;;;;;14.12;63.12;101312.75;5076438;28;46175;-82
2022/09/25 07:42:15;;;;;;;;;6.00;4.75;;;;;14.13;63.23;101317.13;5077426;27;45258;-82
2022/09/25 07:44:41;;;;;;;;;5.00;4.00;;;;;14.17;63.49;101316.22;5062075;28;45434;-82
2022/09/25 07:47:07;;;;;;;;;3.25;3.00;;;;;14.22;63.75;101305.56;5073092;27;45484;-83
2022/09/25 07:49:33;;;;;;;;;5.00;5.00;;;;;14.34;63.14;101313.41;5075294;28;45424;-82
2022/09/25 07:52:00;;;;;;;;;5.00;5.00;;;;;14.40;63.32;101305.38;5064708;27;45346;-82
2022/09/25 07:54:25;;;;;;;;;5.00;5.00;;;;;14.46;63.17;101309.72;5073783;28;45331;-83
2022/09/25 07:56:51;;;;;;;;;4.00;4.00;;;;;14.52;62.85;101315.00;5068651;28;45440;-83
2022/09/25 07:59:16;;;;;;;;;3.25;3.00;;;;;14.49;62.74;101297.34;5080061;27;46653;-82
2022/09/25 08:01:42;;;;;;;;;3.00;3.00;;;;;14.59;62.46;101311.38;5082412;27;45265;-84
2022/09/25 08:04:07;;;;;;;;;8.75;5.00;;;;;14.68;62.27;101313.09;5087576;27;45284;-84
2022/09/25 08:06:34;;;;;;;;;3.50;3.50;;;;;14.67;62.10;101303.34;5080430;27;45408;-81
2022/09/25 08:08:59;;;;;;;;;7.00;6.50;;;;;14.82;62.33;101319.09;5084081;28;47172;-84
2022/09/25 08:11:26;;;;;;;;;4.00;4.00;;;;;14.88;61.80;101319.00;5080020;27;45591;-84
2022/09/25 08:13:52;;;;;;;;;6.25;5.25;;;;;14.93;61.90;101309.22;5078755;28;45398;-83
2022/09/25 08:16:20;;;;;;;;;3.75;3.75;;;;;14.97;61.40;101310.94;5078364;27;45350;-83
2022/09/25 08:18:46;;;;;;;;;4.50;3.00;;;;;15.11;61.45;101328.47;5078185;28;45291;-85
2022/09/25 08:21:14;;;;;;;;;3.00;2.00;;;;;15.18;61.17;101328.38;5071436;28;45267;-83
2022/09/25 08:23:48;;;;;;;;;4.00;3.50;;;;;15.24;60.67;101330.06;5076859;27;45227;-83
2022/09/25 08:26:14;;;;;;;;;3.00;2.00;;;;;15.29;60.65;101319.34;5072792;28;45194;-80
2022/09/25 08:28:40;;;;;;;;;2.00;2.00;;;;;15.34;60.54;101329.03;5082731;27;45874;-84
2022/09/25 08:31:07;;;;;;;;;3.00;2.00;;;;;15.36;60.18;101324.56;5064008;28;45330;-83
2022/09/25 08:33:33;;;;;;;;;4.67;2.33;;;;;15.46;59.99;101324.44;5066362;27;45393;-84
2022/09/25 08:36:01;;;;;;;;;5.67;5.00;;;;;15.53;59.68;101328.75;5080991;28;45311;-83
2022/09/25 08:38:28;;;;;;;;;4.00;3.00;;;;;15.60;59.78;101330.41;5086152;27;48238;-83
2022/09/25 08:41:03;;;;;;;;;11.00;9.25;;;;;15.69;59.28;101329.41;5074427;27;45661;-83
2022/09/25 08:43:33;;;;;;;;;7.75;6.75;;;;;15.74;58.94;101323.13;5077877;28;45330;-82
2022/09/25 08:49:05;;;;;;;;;6.00;5.33;;;;;15.94;58.47;101324.63;5072189;28;45875;-82
2022/09/25 08:51:51;;;;;;;;;5.50;4.50;;;;;16.03;58.43;101325.31;5079410;28;45643;-83
2022/09/25 08:54:25;;;;;;;;;8.00;6.25;;;;;16.13;58.38;101328.72;5063948;28;44786;-84
2022/09/25 08:56:54;;;;;;;;;3.33;2.00;;;;;16.20;57.80;101318.84;5062389;28;45234;-83
2022/09/25 08:59:43;;;;;;;;;3.00;2.00;;;;;16.24;57.22;101324.06;5073715;28;47630;-84
2022/09/25 09:02:21;;;;;;;;;5.00;4.50;;;;;16.30;57.21;101324.00;5071823;28;45351;-83
2022/09/25 09:04:53;;;;;;;;;4.00;3.75;;;;;16.31;56.09;101324.84;5075745;28;45430;-85
2022/09/25 09:07:41;;;;;;;;;3.00;3.00;;;;;16.39;56.29;101324.72;5075783;28;45407;-82
2022/09/25 09:10:15;;;;;;;;;5.00;4.00;;;;;16.44;55.84;101322.81;5072495;28;45374;-83
2022/09/25 09:12:56;;;;;;;;;3.33;3.00;;;;;16.46;55.70;101319.22;5064765;28;45295;-82
2022/09/25 09:15:39;;;;;;;;;10.00;9.00;;;;;16.52;55.22;101324.47;5075455;28;45654;-85
2022/09/25 09:18:20;;;;;;;;;4.00;4.00;;;;;16.58;54.91;101330.56;5074917;28;45252;-84
2022/09/25 09:20:54;;;;;;;;;6.00;5.00;;;;;16.62;54.78;101332.25;5077493;28;45322;-83
2022/09/25 09:23:22;;;;;;;;;4.33;3.67;;;;;16.66;54.68;101324.19;5071251;27;45443;-83
2022/09/25 09:25:51;;;;;;;;;2.00;2.00;;;;;16.75;54.21;101328.44;5095104;27;45262;-83
2022/09/25 09:28:30;;;;;;;;;4.25;4.25;;;;;16.80;54.08;101331.91;5072884;28;45156;-84
2022/09/25 09:31:07;;;;;;;;;5.25;4.00;;;;;16.84;53.74;101325.66;5064663;28;47364;-84
2022/09/25 09:33:33;;;;;;;;;2.33;2.33;;;;;16.88;53.20;101326.44;5072309;28;45437;-84
2022/09/25 09:36:35;;;;;;;;;2.33;2.33;;;;;16.87;53.45;101320.25;5068842;28;45511;-87
2022/09/25 09:39:18;;;;;;;;;4.67;4.67;;;;;17.00;53.10;101327.97;5067029;28;45559;-83
2022/09/25 09:42:12;;;;;;;;;4.00;4.00;;;;;17.08;52.67;101326.00;5078874;28;47110;-84
2022/09/25 09:45:10;;;;;;;;;2.33;2.33;;;;;17.14;52.75;101332.09;5065572;28;45454;-83
2022/09/25 09:48:00;;;;;;;;;1.33;1.33;;;;;17.18;52.21;101328.44;5079821;28;45200;-87
2022/09/25 09:50:49;;;;;;;;;3.00;3.00;;;;;17.27;52.37;101323.81;5075975;28;45412;-85
2022/09/25 09:53:47;;;;;;;;;3.67;3.67;;;;;17.36;52.14;101329.84;5078442;28;48248;-85
2022/09/25 09:56:31;;;;;;;;;4.33;2.00;;;;;17.47;51.60;101332.25;5092624;27;45207;-84
2022/09/25 09:58:58;;;;;;;;;2.00;2.00;;;;;17.51;51.07;101327.72;5068952;28;45343;-85
2022/09/25 10:01:29;;;;;;;;;1.67;1.67;;;;;17.53;50.85;101326.78;5075164;28;45570;-83
2022/09/25 10:04:22;;;;;;;;;1.33;1.00;;;;;17.55;50.81;101319.63;5083838;27;47701;-85
2022/09/25 10:06:52;;;;;;;;;3.33;3.00;;;;;17.60;50.30;101325.72;5067427;28;45456;-86
2022/09/25 10:09:18;;;;;;;;;2.67;2.67;;;;;17.65;50.32;101322.97;5061107;28;45399;-89
2022/09/25 10:11:51;;;;;;;;;3.00;3.00;;;;;17.71;49.97;101327.28;5096241;27;45344;-86
2022/09/25 10:14:19;;;;;;;;;3.33;3.00;;;;;17.80;50.17;101316.41;5065608;28;46038;-86
2022/09/25 10:16:48;;;;;;;;;2.67;1.00;;;;;17.90;49.20;101317.94;5085382;27;45755;-86
2022/09/25 10:19:20;;;;;;;;;1.67;1.00;;;;;17.97;48.41;101305.34;5058825;28;45480;-84
2022/09/25 10:21:52;;;;;;;;;2.00;2.00;;;;;18.03;48.34;101306.06;5072090;28;45548;-87
2022/09/25 10:24:50;;;;;;;;;3.00;2.00;;;;;18.20;48.19;101299.41;5064338;28;48077;-86
2022/09/25 10:27:30;;;;;;;;;5.67;3.33;;;;;18.29;47.89;101294.72;5062058;28;45472;-87
2022/09/25 10:30:11;;;;;;;;;2.33;2.33;;;;;18.44;47.39;101298.78;5087110;27;45319;-88
2022/09/25 10:33:01;;;;;;;;;1.67;1.00;;;;;18.57;46.91;101298.41;5062538;28;45323;-90
2022/09/25 10:35:38;;;;;;;;;0.00;0.00;;;;;18.65;46.34;101293.75;5090118;28;46862;-88
2022/09/25 10:38:15;;;;;;;;;0.33;0.33;;;;;18.75;45.87;101292.59;5084705;28;45245;-90
2022/09/25 10:40:48;;;;;;;;;0.00;0.00;;;;;18.83;45.88;101290.59;5089781;27;45382;-87
2022/09/25 10:43:13;;;;;;;;;2.67;1.67;;;;;18.95;45.39;101292.91;5076708;28;45266;-91
2022/09/25 10:45:42;;;;;;;;;2.67;2.00;;;;;19.08;45.45;101281.84;5071228;28;47122;-88
2022/09/25 10:51:11;;;;;;;;;1.00;1.00;;;;;19.39;43.55;101295.13;5076704;28;45238;-91
2022/09/25 10:53:36;;;;;;;;;2.00;2.00;;;;;19.43;43.45;101286.06;5071151;28;45585;-89
2022/09/25 10:56:11;;;;;;;;;1.33;1.33;;;;;19.55;43.62;101283.03;5103436;27;46327;-91
2022/09/25 10:58:51;;;;;;;;;3.00;1.67;;;;;19.72;43.42;101287.84;5083233;27;45544;-88
2022/09/25 11:01:20;;;;;;;;;2.67;1.67;;;;;19.85;42.99;101295.47;5073465;27;45151;-86
2022/09/25 11:03:55;;;;;;;;;50.50;41.00;;;;;20.01;42.38;101286.88;5067543;28;45428;-85
2022/09/25 11:06:34;;;;;;;;;4.00;4.00;;;;;20.19;42.36;101279.16;5061350;28;48281;-85
2022/09/25 11:08:59;;;;;;;;;3.00;2.67;;;;;20.40;42.39;101290.88;5057330;28;45751;-89
2022/09/25 11:11:25;;;;;;;;;2.00;1.33;;;;;20.60;41.41;101292.84;5064191;28;45473;-85
2022/09/25 11:13:55;;;;;;;;;2.67;1.33;;;;;20.84;41.30;101293.75;5075638;27;45538;-85
2022/09/25 11:16:42;;;;;;;;;2.33;1.00;;;;;21.04;39.82;101291.19;5072735;28;46201;-85
2022/09/25 11:19:13;;;;;;;;;0.67;0.67;;;;;21.23;39.84;101293.16;5074493;28;45330;-83
2022/09/25 11:22:00;;;;;;;;;2.00;2.00;;;;;21.39;39.17;101290.78;5080024;27;45260;-87
2022/09/25 11:24:31;;;;;;;;;2.67;2.67;;;;;21.59;39.31;101286.34;5081120;27;45310;-88
2022/09/25 11:27:07;;;;;;;;;4.00;4.00;;;;;21.84;39.13;101290.72;5081459;28;47428;-86
2022/09/25 11:29:45;;;;;;;;;1.00;0.00;;;;;22.13;38.89;101289.47;5080905;28;45248;-87
2022/09/25 11:32:23;;;;;;;;;1.00;0.00;;;;;22.43;38.41;101297.16;5071494;28;45394;-88
2022/09/25 11:35:16;;;;;;;;;4.67;4.67;;;;;22.72;37.55;101295.84;5067079;28;45284;-87
2022/09/25 11:38:00;;;;;;;;;105.20;96.60;;;;;22.96;37.03;101304.59;5067256;28;47325;-83
2022/09/25 11:43:18;;;;;;;;;7.33;5.67;;;;;23.23;36.48;101293.47;5065677;28;45478;-83
2022/09/25 11:45:46;;;;;;;;;2.00;2.00;;;;;23.50;36.20;101286.78;5081097;28;45301;-86
2022/09/25 11:48:27;;;;;;;;;2.00;1.00;;;;;23.80;35.57;101291.63;5068084;28;48306;-88
2022/09/25 11:51:38;;;;;;;;;3.00;1.33;;;;;24.02;34.89;101290.53;5072788;28;45414;-84
2022/09/25 11:54:22;;;;;;;;;3.00;2.00;;;;;24.23;34.54;101283.16;5074798;28;45461;-87
2022/09/25 11:57:20;;;;;;;;;2.00;2.00;;;;;24.47;33.32;101284.59;5079550;28;45545;-84
2022/09/25 12:00:02;;;;;;;;;2.00;1.33;;;;;24.63;33.81;101285.50;5042128;28;47133;-84